Laurens, Iowa
Current Conditions -  °F | °C
As of 12:15 AM on Wednesday 22 Oct 2014 (Local Time) from KSLB Reporting Station
Clear Clear  
Wind Chill: 42°   Ceiling: Unl
Heat Index: 48°   Visibility: 10mi
Dew Point: 43°   Wind: 15mph
Humidity: 82%   Direction: 150°SSE
Pressure: 30.11"   Gusts: 21mph
Location:  42.85°N, 94.85°W
Report Text: KSLB 220515Z AUTO 15013G18KT 10SM CLR 09/06 A3011 RMK AO2
Loading
Personal Weather Stations






























Interactive Weather Map
Tropical Storm Tracking
New forecast layout! Learn more

10-Day Weather Forecast

Advertisements
Track Severe Weather on mobile